Santo Antonio, Brazil
Current Conditions -  °F | °C
As of 8:00 PM on Tuesday 27 Jan 2015 (Local Time) from SBNT Reporting Station
Few Clouds Few Clouds  
Wind Chill: 79°   Ceiling: Unl
Heat Index: 81°   Visibility: 6mi
Dew Point: 68°   Wind: 10mph
Humidity: 69%   Direction: 140°SE
Pressure: 29.94"   Gusts: NA
Location:  6.31°S, 35.48°W
Report Text: SBNT 272300Z 14009KT 9999 FEW021 26/20 Q1014
Loading
Personal Weather Stations






























Interactive Weather Map New forecast layout! Learn more

10-Day Weather Forecast

Advertisements
Track Severe Weather on mobile